Time;durP1;ratioP1;P1;durP2;ratioP2;P2;SDS_P1;SDS_P2;PMS_P1;PMS_P2;Temp;Humidity;BMP_temperature;BMP_pressure;BME280_temperature;BME280_humidity;BME280_pressure;Samples;Min_cycle;Max_cycle;Signal;HPM_P1;HPM_P2
2023/03/30 00:00:37;;;;;;;;;4.00;3.00;;;;;18.73;46.67;100399.09;2103933;28;46729;-62
2023/03/30 00:01:37;;;;;;;;;4.75;4.75;;;;;18.73;46.76;100391.03;2104170;28;46403;-62
2023/03/30 00:02:37;;;;;;;;;3.25;3.00;;;;;18.75;46.42;100401.69;2105034;28;46110;-63
2023/03/30 00:03:38;;;;;;;;;2.75;2.75;;;;;18.74;46.59;100402.63;2099963;27;46388;-60
2023/03/30 00:04:41;;;;;;;;;3.00;3.00;;;;;18.74;46.75;100397.25;2098046;28;46484;-64
2023/03/30 00:05:42;;;;;;;;;5.50;4.00;;;;;18.73;47.04;100391.03;2103974;28;46492;-62
2023/03/30 00:06:42;;;;;;;;;2.75;2.00;;;;;18.73;46.71;100382.94;2095845;28;46191;-62
2023/03/30 00:07:44;;;;;;;;;3.75;3.75;;;;;18.73;47.07;100379.41;2095698;28;46930;-62
2023/03/30 00:08:44;;;;;;;;;3.40;3.40;;;;;18.73;47.07;100374.03;2105077;28;46402;-63
2023/03/30 00:09:45;;;;;;;;;5.50;5.50;;;;;18.72;47.27;100373.16;2102264;28;46604;-63
2023/03/30 00:10:46;;;;;;;;;4.75;3.75;;;;;18.72;47.29;100375.84;2104924;28;46281;-63
2023/03/30 00:11:47;;;;;;;;;4.00;4.00;;;;;18.73;47.29;100363.28;2102795;28;46578;-61
2023/03/30 00:12:49;;;;;;;;;4.25;4.25;;;;;18.74;47.43;100365.00;2103130;28;46769;-62
2023/03/30 00:13:50;;;;;;;;;3.00;3.00;;;;;18.74;47.33;100351.56;2107739;27;45233;-63
2023/03/30 00:14:51;;;;;;;;;4.00;4.00;;;;;18.75;47.31;100340.72;2107515;27;46851;-61
2023/03/30 00:15:51;;;;;;;;;4.25;4.25;;;;;18.76;47.38;100353.19;2104728;28;46200;-63
2023/03/30 00:16:52;;;;;;;;;2.00;2.00;;;;;18.76;47.89;100347.81;2105015;28;46452;-61
2023/03/30 00:17:53;;;;;;;;;2.75;2.75;;;;;18.76;47.78;100344.25;2100465;28;46409;-62
2023/03/30 00:18:54;;;;;;;;;2.80;2.60;;;;;18.75;47.97;100326.41;2103161;28;46119;-61
2023/03/30 00:19:54;;;;;;;;;5.00;5.00;;;;;18.75;48.31;100331.78;2104822;28;46571;-60
2023/03/30 00:20:57;;;;;;;;;4.50;4.50;;;;;18.73;48.40;100334.56;2100480;28;46665;-62
2023/03/30 00:21:57;;;;;;;;;3.20;3.00;;;;;18.72;48.30;100332.84;2105036;28;46393;-61
2023/03/30 00:22:58;;;;;;;;;4.75;3.75;;;;;18.71;48.23;100328.44;2104975;28;46396;-61
2023/03/30 00:23:58;;;;;;;;;3.50;3.50;;;;;18.70;48.61;100323.16;2094912;28;45429;-60
2023/03/30 00:24:59;;;;;;;;;3.25;3.25;;;;;18.69;48.56;100322.28;2094475;28;46768;-62
2023/03/30 00:26:00;;;;;;;;;4.25;3.00;;;;;18.68;48.77;100319.69;2096775;28;47077;-61
2023/03/30 00:27:01;;;;;;;;;2.20;2.20;;;;;18.69;48.75;100326.78;2096224;28;46470;-61
2023/03/30 00:28:01;;;;;;;;;6.00;5.00;;;;;18.68;48.63;100341.19;2103589;28;46834;-61
2023/03/30 00:29:01;;;;;;;;;3.25;3.25;;;;;18.67;48.83;100340.31;2104896;28;46382;-61
2023/03/30 00:30:14;;;;;;;;;3.00;3.00;;;;;18.67;48.99;100340.31;2103775;28;46012;-62
2023/03/30 00:31:15;;;;;;;;;3.20;3.20;;;;;18.66;48.91;100330.50;2105015;28;46409;-62
2023/03/30 00:32:15;;;;;;;;;2.75;1.25;;;;;18.66;49.19;100327.81;2101821;28;46393;-61
2023/03/30 00:33:15;;;;;;;;;4.25;3.75;;;;;18.66;49.07;100319.75;2100138;28;45738;-60
2023/03/30 00:34:16;;;;;;;;;3.50;3.50;;;;;18.66;49.29;100317.06;2098389;28;46314;-62
2023/03/30 00:35:16;;;;;;;;;5.00;5.00;;;;;18.67;49.25;100307.19;2099591;28;46228;-61
2023/03/30 00:36:17;;;;;;;;;6.00;5.50;;;;;18.66;49.31;100306.31;2098901;28;46856;-60
2023/03/30 00:37:18;;;;;;;;;5.60;4.00;;;;;18.67;49.34;100313.44;2104007;28;46837;-62
2023/03/30 00:38:20;;;;;;;;;5.00;5.00;;;;;18.66;49.09;100317.06;2104782;27;46377;-62
2023/03/30 00:39:21;;;;;;;;;4.80;4.80;;;;;18.67;49.39;100309.88;2101731;28;46721;-61
2023/03/30 00:40:22;;;;;;;;;4.00;4.00;;;;;18.65;49.69;100304.59;2104616;28;46506;-63
2023/03/30 00:41:22;;;;;;;;;5.00;5.00;;;;;18.64;49.36;100312.75;2103833;28;46620;-62
2023/03/30 00:42:24;;;;;;;;;3.00;3.00;;;;;18.63;49.59;100311.00;2104827;28;46746;-60
2023/03/30 00:43:25;;;;;;;;;3.00;3.00;;;;;18.61;49.68;100313.78;2106602;27;46496;-61
2023/03/30 00:45:04;;;;;;;;;3.60;3.60;;;;;18.60;49.85;100313.88;2108432;27;46762;-61
2023/03/30 00:46:05;;;;;;;;;4.60;4.60;;;;;18.59;49.76;100320.22;2098987;28;46725;-61
2023/03/30 00:47:06;;;;;;;;;5.75;5.25;;;;;18.58;49.98;100319.34;2103770;28;46258;-61
2023/03/30 00:48:16;;;;;;;;;4.00;4.00;;;;;18.56;49.83;100318.59;2103778;28;46413;-61
2023/03/30 00:49:16;;;;;;;;;4.60;2.80;;;;;18.54;49.57;100325.84;2104484;28;46908;-62
2023/03/30 00:50:20;;;;;;;;;4.75;3.50;;;;;18.51;49.87;100310.78;2102879;28;46187;-62
2023/03/30 00:51:21;;;;;;;;;5.40;4.80;;;;;18.49;50.05;100318.09;2104685;28;46397;-62
2023/03/30 00:52:23;;;;;;;;;3.50;3.00;;;;;18.48;49.90;100324.41;2102101;28;46763;-62
2023/03/30 00:53:24;;;;;;;;;3.80;3.80;;;;;18.47;49.82;100308.41;2101320;27;45569;-60
2023/03/30 00:54:24;;;;;;;;;3.50;3.50;;;;;18.47;50.00;100303.03;2099343;27;47654;-60
2023/03/30 00:55:29;;;;;;;;;5.50;5.50;;;;;18.45;49.86;100311.19;2096296;28;46435;-62
2023/03/30 00:56:30;;;;;;;;;5.00;4.20;;;;;18.44;49.92;100308.59;2095859;28;46441;-61
2023/03/30 00:57:32;;;;;;;;;3.50;3.00;;;;;18.43;49.74;100323.84;2091599;28;46456;-61
2023/03/30 00:58:35;;;;;;;;;3.00;3.00;;;;;18.43;49.92;100329.22;2096200;28;46003;-61
2023/03/30 00:59:36;;;;;;;;;3.00;3.00;;;;;18.43;50.11;100320.28;2104133;28;46593;-63
2023/03/30 01:00:38;;;;;;;;;4.00;4.00;;;;;18.43;49.95;100325.66;2104457;28;46346;-61
2023/03/30 01:01:40;;;;;;;;;4.40;3.40;;;;;18.43;49.91;100322.97;2103869;28;46481;-61
2023/03/30 01:02:44;;;;;;;;;3.60;3.40;;;;;18.43;49.91;100328.34;2104831;28;46708;-61
2023/03/30 01:03:47;;;;;;;;;5.00;4.60;;;;;18.42;49.80;100330.19;2104654;28;46618;-62
2023/03/30 01:04:52;;;;;;;;;4.60;4.60;;;;;18.42;49.86;100321.22;2098659;28;46273;-63
2023/03/30 01:05:55;;;;;;;;;4.80;4.00;;;;;18.41;49.90;100316.81;2104321;28;46930;-61
2023/03/30 01:06:57;;;;;;;;;6.60;6.60;;;;;18.42;49.65;100313.16;2104200;28;46732;-61
2023/03/30 01:07:58;;;;;;;;;4.00;4.00;;;;;18.42;49.83;100306.00;2104227;28;46817;-63
2023/03/30 01:08:58;;;;;;;;;4.40;4.00;;;;;18.41;49.89;100303.38;2103987;28;46598;-62
2023/03/30 01:10:00;;;;;;;;;5.00;5.00;;;;;18.40;49.80;100304.34;2102230;28;46551;-62
2023/03/30 01:11:01;;;;;;;;;4.00;4.00;;;;;18.40;49.91;100307.03;2095521;28;46615;-61
2023/03/30 01:12:02;;;;;;;;;3.00;3.00;;;;;18.40;49.92;100301.66;2093692;28;46587;-62
2023/03/30 01:13:02;;;;;;;;;5.00;4.00;;;;;18.39;49.78;100307.97;2097920;28;46622;-60
2023/03/30 01:14:06;;;;;;;;;4.67;4.67;;;;;18.38;49.85;100317.88;2100449;28;46431;-62
2023/03/30 01:15:08;;;;;;;;;4.60;4.60;;;;;18.38;50.12;100315.19;2094854;28;47052;-62
2023/03/30 01:16:17;;;;;;;;;2.80;2.80;;;;;18.37;50.24;100317.97;2104400;28;46366;-62
2023/03/30 01:17:51;;;;;;;;;3.40;3.40;;;;;18.34;50.42;100312.78;2103905;28;46450;-61
2023/03/30 01:19:17;;;;;;;;;2.40;2.40;;;;;18.33;50.20;100311.06;2103771;28;46389;-62
2023/03/30 01:20:42;;;;;;;;;3.25;3.25;;;;;18.32;50.42;100320.94;2102705;28;46703;-61
2023/03/30 01:21:58;;;;;;;;;3.25;3.25;;;;;18.30;50.44;100328.22;2100669;28;46308;-61
2023/03/30 01:23:26;;;;;;;;;2.00;2.00;;;;;18.29;50.93;100323.78;2104059;28;46494;-60
2023/03/30 01:24:52;;;;;;;;;4.00;3.00;;;;;18.27;50.84;100323.00;2097428;28;46528;-61
2023/03/30 01:26:50;;;;;;;;;3.00;3.00;;;;;18.25;51.19;100316.88;2100899;28;46415;-62
2023/03/30 01:28:18;;;;;;;;;4.00;4.00;;;;;18.23;51.04;100308.03;2068518;28;46984;-60
2023/03/30 01:29:27;;;;;;;;;3.00;3.00;;;;;18.22;51.14;100319.75;2069388;28;47130;-61
2023/03/30 01:31:00;;;;;;;;;4.00;3.60;;;;;18.21;51.33;100316.19;2066485;28;46833;-61
2023/03/30 01:32:43;;;;;;;;;3.75;2.75;;;;;18.20;51.14;100311.78;2040011;28;46502;-62
2023/03/30 01:33:53;;;;;;;;;3.00;3.00;;;;;18.18;51.21;100302.97;2039575;28;47105;-62
2023/03/30 01:35:33;;;;;;;;;6.20;3.80;;;;;18.18;51.10;100312.84;2037640;28;46759;-60
2023/03/30 01:36:58;;;;;;;;;4.75;3.75;;;;;18.16;51.47;100314.72;2033589;28;46662;-62
2023/03/30 01:38:04;;;;;;;;;4.00;3.00;;;;;18.14;51.46;100311.28;2042786;28;46537;-60
2023/03/30 01:39:14;;;;;;;;;2.25;2.25;;;;;18.14;51.17;100313.97;2043983;28;48041;-62
2023/03/30 01:40:26;;;;;;;;;0.00;0.00;;;;;18.11;51.08;100328.44;2040527;28;46876;-62
2023/03/30 01:41:55;;;;;;;;;3.75;2.50;;;;;18.08;51.10;100336.69;2041991;28;46971;-62
2023/03/30 01:43:15;;;;;;;;;0.25;0.25;;;;;18.06;51.72;100352.03;2006362;29;46944;-62
2023/03/30 01:44:24;;;;;;;;;1.75;1.75;;;;;18.04;51.54;100353.94;2007062;29;46813;-61
2023/03/30 01:45:41;;;;;;;;;3.20;2.20;;;;;18.03;51.54;100364.75;2004184;29;46641;-61
2023/03/30 01:46:54;;;;;;;;;3.00;2.25;;;;;18.01;51.19;100356.78;2009424;29;46549;-63
2023/03/30 01:48:04;;;;;;;;;3.50;3.50;;;;;17.98;51.52;100359.66;2014019;29;46468;-61
2023/03/30 01:49:26;;;;;;;;;1.75;0.75;;;;;17.96;51.72;100349.94;2006741;29;46623;-62
2023/03/30 01:50:39;;;;;;;;;2.75;2.75;;;;;17.94;51.44;100353.59;2005559;29;47315;-61
2023/03/30 01:51:47;;;;;;;;;3.00;2.25;;;;;17.93;52.00;100349.19;2010986;29;47006;-61
2023/03/30 01:52:58;;;;;;;;;1.25;1.25;;;;;17.92;51.76;100341.22;2008427;29;46383;-61
2023/03/30 01:54:06;;;;;;;;;0.75;0.75;;;;;17.91;51.54;100344.81;2006537;29;46991;-60
2023/03/30 01:55:12;;;;;;;;;1.00;1.00;;;;;17.90;51.74;100343.97;2019802;29;46618;-60
2023/03/30 01:56:21;;;;;;;;;7.40;7.40;;;;;17.89;51.67;100344.91;2020035;29;46200;-61
2023/03/30 01:57:47;;;;;;;;;0.25;0.25;;;;;17.86;52.01;100341.56;2006733;29;47546;-62
2023/03/30 01:58:53;;;;;;;;;2.00;2.00;;;;;17.83;52.11;100341.75;2003357;29;46752;-62
2023/03/30 02:00:12;;;;;;;;;1.00;1.00;;;;;17.82;52.06;100337.34;2037284;28;46881;-61
2023/03/30 02:01:16;;;;;;;;;2.75;2.75;;;;;17.80;52.07;100332.06;2030200;29;46884;-61
2023/03/30 02:02:18;;;;;;;;;0.50;0.00;;;;;17.80;52.27;100333.88;2031369;28;46732;-61
2023/03/30 02:03:26;;;;;;;;;1.75;0.75;;;;;17.78;52.11;100342.00;2030914;29;46480;-61
2023/03/30 02:04:31;;;;;;;;;1.00;1.00;;;;;17.77;51.77;100350.13;2024121;29;46371;-61
2023/03/30 02:05:33;;;;;;;;;2.40;1.00;;;;;17.75;52.30;100334.13;2035201;28;46531;-61
2023/03/30 02:06:42;;;;;;;;;0.25;0.25;;;;;17.75;52.28;100338.63;2038904;28;46695;-60
2023/03/30 02:07:49;;;;;;;;;1.75;1.75;;;;;17.74;52.25;100323.47;2031473;29;45940;-61
2023/03/30 02:08:50;;;;;;;;;3.00;1.75;;;;;17.74;52.17;100307.38;2034715;28;45750;-61
2023/03/30 02:09:55;;;;;;;;;0.80;0.80;;;;;17.73;52.04;100287.72;2051817;28;46568;-62
2023/03/30 02:10:57;;;;;;;;;1.00;1.00;;;;;17.73;51.78;100292.22;2063236;28;47036;-62
2023/03/30 02:12:00;;;;;;;;;1.75;1.75;;;;;17.71;51.91;100295.00;2055104;28;46364;-62
2023/03/30 02:13:04;;;;;;;;;0.00;0.00;;;;;17.71;51.96;100300.38;2055236;28;46732;-61
2023/03/30 02:14:05;;;;;;;;;3.40;2.00;;;;;17.71;51.93;100318.28;2062434;28;46374;-60
2023/03/30 02:15:09;;;;;;;;;3.25;0.50;;;;;17.71;52.15;100329.91;2063128;28;46868;-60
2023/03/30 02:16:20;;;;;;;;;1.25;1.25;;;;;17.71;52.11;100331.72;2063192;28;46506;-62
2023/03/30 02:17:22;;;;;;;;;2.00;2.00;;;;;17.70;51.78;100346.09;2054887;28;46080;-62
2023/03/30 02:18:23;;;;;;;;;1.00;1.00;;;;;17.70;52.11;100338.03;2055807;28;45514;-61
2023/03/30 02:19:23;;;;;;;;;2.33;1.00;;;;;17.69;52.15;100347.03;2062744;28;46147;-62
2023/03/30 02:20:23;;;;;;;;;2.00;2.00;;;;;17.68;52.33;100350.66;2074195;28;46410;-62
2023/03/30 02:21:24;;;;;;;;;2.33;2.33;;;;;17.68;51.80;100350.66;2103661;28;46635;-62
2023/03/30 02:22:28;;;;;;;;;3.00;3.00;;;;;17.67;52.00;100360.50;2096055;28;46259;-61
2023/03/30 02:23:34;;;;;;;;;2.00;1.00;;;;;17.66;52.14;100369.53;2090577;28;46973;-61
2023/03/30 02:24:35;;;;;;;;;3.00;2.00;;;;;17.65;52.30;100362.41;2100912;28;46582;-62
2023/03/30 02:25:37;;;;;;;;;1.00;1.00;;;;;17.65;51.95;100357.03;2104821;28;46552;-61
2023/03/30 02:26:37;;;;;;;;;1.25;1.25;;;;;17.64;51.91;100372.25;2095588;28;46522;-62
2023/03/30 02:27:40;;;;;;;;;2.33;2.33;;;;;17.64;52.28;100363.34;2087706;28;45853;-61
2023/03/30 02:28:41;;;;;;;;;1.00;1.00;;;;;17.63;52.25;100367.84;2087887;28;46279;-62
2023/03/30 02:29:44;;;;;;;;;0.33;0.33;;;;;17.63;51.93;100367.00;2104576;28;46413;-61
2023/03/30 02:30:46;;;;;;;;;2.00;0.25;;;;;17.62;52.07;100359.88;2103393;28;46319;-61
2023/03/30 02:31:49;;;;;;;;;1.25;1.25;;;;;17.61;52.33;100356.34;2104891;28;45644;-61
2023/03/30 02:32:55;;;;;;;;;1.00;1.00;;;;;17.59;52.23;100358.25;2090989;28;48252;-62
2023/03/30 02:33:55;;;;;;;;;1.00;1.00;;;;;17.54;52.14;100349.59;2083629;28;46413;-61
2023/03/30 02:35:17;;;;;;;;;1.00;1.00;;;;;17.52;51.90;100350.63;2094375;28;46349;-61
2023/03/30 02:37:00;;;;;;;;;1.00;0.25;;;;;17.50;52.16;100364.13;2103897;28;46145;-61
2023/03/30 02:38:34;;;;;;;;;1.75;1.00;;;;;17.46;52.06;100365.25;2063282;28;46994;-62
2023/03/30 02:39:49;;;;;;;;;2.00;2.00;;;;;17.44;52.22;100369.84;2069985;28;46398;-62
2023/03/30 02:41:11;;;;;;;;;1.00;1.00;;;;;17.43;52.67;100364.56;2071411;28;45759;-62
2023/03/30 02:42:11;;;;;;;;;0.50;0.50;;;;;17.42;52.57;100361.03;2068229;28;46155;-62
2023/03/30 02:43:25;;;;;;;;;1.00;1.00;;;;;17.40;52.27;100364.72;2063758;28;46533;-62
2023/03/30 02:44:35;;;;;;;;;1.75;0.00;;;;;17.37;52.22;100371.13;2063672;28;45898;-61
2023/03/30 02:46:00;;;;;;;;;0.25;0.25;;;;;17.33;52.65;100366.88;2068504;28;46660;-61
2023/03/30 02:47:14;;;;;;;;;1.75;1.75;;;;;17.31;52.46;100384.88;2069534;28;46412;-61
2023/03/30 02:48:48;;;;;;;;;2.50;1.75;;;;;17.29;52.38;100392.16;2069374;28;46569;-62
2023/03/30 02:50:22;;;;;;;;;2.25;2.25;;;;;17.28;52.52;100401.16;2066257;28;46766;-62
2023/03/30 02:51:23;;;;;;;;;1.50;1.00;;;;;17.28;52.59;100401.16;2068901;28;46408;-62
2023/03/30 02:52:48;;;;;;;;;1.00;1.00;;;;;17.25;52.70;100404.84;2069888;28;46348;-62
2023/03/30 02:53:49;;;;;;;;;1.00;1.00;;;;;17.24;52.59;100404.94;2075261;28;46072;-62
2023/03/30 02:55:01;;;;;;;;;1.33;1.33;;;;;17.23;52.87;100405.88;2072493;28;45603;-63
2023/03/30 02:56:24;;;;;;;;;1.25;1.00;;;;;17.20;52.74;100404.25;2062545;28;46746;-61
2023/03/30 02:57:31;;;;;;;;;1.00;1.00;;;;;17.18;52.93;100411.50;2063122;28;46914;-61
2023/03/30 02:58:50;;;;;;;;;1.75;1.75;;;;;17.16;52.76;100405.38;2068838;28;46300;-62
2023/03/30 02:59:57;;;;;;;;;1.80;1.80;;;;;17.15;52.62;100397.38;2062785;28;46969;-63
2023/03/30 03:01:04;;;;;;;;;1.50;1.50;;;;;17.12;53.12;100398.41;2063899;28;46707;-63
2023/03/30 03:02:12;;;;;;;;;1.50;1.50;;;;;17.10;52.91;100397.63;2063699;28;45156;-62
2023/03/30 03:03:18;;;;;;;;;1.25;1.25;;;;;17.09;53.31;100395.03;2066474;28;46729;-61
2023/03/30 03:04:22;;;;;;;;;1.25;1.25;;;;;17.10;53.28;100396.78;2071324;28;47047;-62
2023/03/30 03:05:25;;;;;;;;;3.00;2.00;;;;;17.10;53.28;100399.44;2071236;28;46302;-61
2023/03/30 03:06:26;;;;;;;;;1.75;1.75;;;;;17.10;53.10;100407.50;2070627;28;46881;-62
2023/03/30 03:07:31;;;;;;;;;1.25;1.25;;;;;17.10;53.03;100407.50;2071153;28;46556;-62
2023/03/30 03:08:34;;;;;;;;;1.50;1.25;;;;;17.07;53.26;100408.53;2064176;28;46371;-61
2023/03/30 03:09:35;;;;;;;;;0.75;0.75;;;;;17.06;53.25;100407.66;2062424;28;47083;-62
2023/03/30 03:10:35;;;;;;;;;2.75;1.25;;;;;17.05;53.47;100410.44;2064241;28;45830;-61
2023/03/30 03:11:36;;;;;;;;;1.33;1.33;;;;;17.03;53.41;100406.97;2062464;28;46833;-61
2023/03/30 03:12:36;;;;;;;;;1.00;1.00;;;;;17.00;53.56;100401.75;2062854;28;46628;-61
2023/03/30 03:13:37;;;;;;;;;1.00;1.00;;;;;16.99;53.78;100392.84;2069427;28;46560;-61
2023/03/30 03:14:38;;;;;;;;;2.00;1.00;;;;;16.98;53.61;100398.28;2075394;28;48460;-62
2023/03/30 03:15:39;;;;;;;;;0.67;0.67;;;;;16.98;53.17;100391.13;2088429;28;46680;-61
2023/03/30 03:16:39;;;;;;;;;2.00;2.00;;;;;16.99;53.66;100389.28;2103753;28;46496;-63
2023/03/30 03:17:40;;;;;;;;;0.00;0.00;;;;;16.99;53.77;100394.66;2096216;28;45678;-63
2023/03/30 03:18:41;;;;;;;;;0.50;0.50;;;;;17.01;53.68;100400.78;2097074;28;46970;-62
2023/03/30 03:19:41;;;;;;;;;0.33;0.33;;;;;17.00;54.28;100407.09;2105392;28;46387;-63
2023/03/30 03:20:41;;;;;;;;;1.00;1.00;;;;;16.99;53.91;100403.56;2101276;28;46665;-63
2023/03/30 03:21:42;;;;;;;;;0.67;0.67;;;;;16.98;54.03;100390.25;2105243;28;46227;-63
2023/03/30 03:22:42;;;;;;;;;0.00;0.00;;;;;16.97;53.59;100385.84;2087874;28;46776;-62
2023/03/30 03:23:43;;;;;;;;;2.00;0.67;;;;;16.96;53.98;100387.66;2096236;28;46675;-60
2023/03/30 03:24:43;;;;;;;;;0.33;0.33;;;;;16.95;54.06;100390.41;2101016;27;46742;-63
2023/03/30 03:25:44;;;;;;;;;0.00;0.00;;;;;16.93;53.74;100392.31;2105392;28;46766;-61
2023/03/30 03:26:44;;;;;;;;;2.67;1.00;;;;;16.91;54.11;100399.56;2097593;28;46288;-62
2023/03/30 03:27:46;;;;;;;;;1.00;1.00;;;;;16.88;54.21;100394.34;2096657;28;45781;-62
2023/03/30 03:28:46;;;;;;;;;1.00;1.00;;;;;16.87;54.42;100395.31;2096884;28;46439;-62
2023/03/30 03:29:46;;;;;;;;;1.67;1.67;;;;;16.86;54.26;100391.75;2100497;28;46290;-62
2023/03/30 03:30:49;;;;;;;;;1.00;0.00;;;;;16.86;54.34;100390.91;2105618;28;45847;-62
2023/03/30 03:31:50;;;;;;;;;0.75;0.75;;;;;16.84;54.30;100388.28;2100027;28;46613;-62
2023/03/30 03:32:51;;;;;;;;;0.00;0.00;;;;;16.84;54.12;100377.56;2097371;28;46699;-63
2023/03/30 03:33:51;;;;;;;;;2.00;0.67;;;;;16.83;53.89;100394.59;2097917;28;46176;-63
2023/03/30 03:34:52;;;;;;;;;1.67;0.33;;;;;16.83;54.04;100391.06;2096807;28;46248;-64
2023/03/30 03:35:58;;;;;;;;;0.67;0.67;;;;;16.81;54.44;100401.00;2104804;28;46679;-64
2023/03/30 03:36:58;;;;;;;;;1.25;1.25;;;;;16.82;53.94;100402.72;2105433;28;45388;-64
2023/03/30 03:37:59;;;;;;;;;3.00;2.00;;;;;16.82;54.64;100402.72;2104908;28;46586;-63
2023/03/30 03:38:59;;;;;;;;;0.00;0.00;;;;;16.80;54.64;100410.00;2103777;28;46591;-63
2023/03/30 03:40:00;;;;;;;;;0.00;0.00;;;;;16.78;54.59;100399.34;2105150;28;46223;-62
2023/03/30 03:41:00;;;;;;;;;1.00;1.00;;;;;16.75;55.04;100400.34;2105223;28;46824;-63
2023/03/30 03:42:00;;;;;;;;;1.67;0.67;;;;;16.73;54.78;100393.34;2095818;28;48231;-62
2023/03/30 03:43:01;;;;;;;;;0.00;0.00;;;;;16.72;54.57;100396.97;2096212;28;46624;-61
2023/03/30 03:44:01;;;;;;;;;0.67;0.67;;;;;16.70;54.82;100402.44;2101922;27;46590;-62
2023/03/30 03:45:02;;;;;;;;;0.00;0.00;;;;;16.69;54.68;100398.00;2100926;28;46245;-63
2023/03/30 03:46:02;;;;;;;;;1.25;1.25;;;;;16.68;54.84;100398.97;2105288;28;46945;-64
2023/03/30 03:47:03;;;;;;;;;0.67;0.67;;;;;16.67;55.32;100399.91;2104343;28;46362;-63
2023/03/30 03:48:03;;;;;;;;;0.00;0.00;;;;;16.67;54.95;100391.88;2104692;28;46732;-63
2023/03/30 03:49:03;;;;;;;;;0.00;0.00;;;;;16.67;54.93;100394.56;2105157;27;46465;-63
2023/03/30 03:50:08;;;;;;;;;0.67;0.67;;;;;16.66;55.52;100399.97;2100779;28;46674;-62
2023/03/30 03:51:08;;;;;;;;;1.50;1.00;;;;;16.67;54.66;100399.00;2097216;28;46141;-63
2023/03/30 03:52:09;;;;;;;;;0.00;0.00;;;;;16.66;55.01;100406.19;2105010;28;45788;-63
2023/03/30 03:53:11;;;;;;;;;0.00;0.00;;;;;16.66;55.00;100406.19;2101905;27;45539;-63
2023/03/30 03:54:11;;;;;;;;;1.25;0.75;;;;;16.65;55.11;100407.13;2113723;27;46792;-64
2023/03/30 03:55:12;;;;;;;;;0.33;0.33;;;;;16.62;55.14;100407.25;2104871;27;46793;-62
2023/03/30 03:56:13;;;;;;;;;1.50;1.50;;;;;16.60;55.73;100398.44;2104766;28;46751;-62
2023/03/30 03:57:14;;;;;;;;;0.00;0.00;;;;;16.56;55.72;100401.38;2103868;28;46644;-63
2023/03/30 03:58:16;;;;;;;;;0.00;0.00;;;;;16.55;55.43;100397.81;2104147;28;46371;-62
2023/03/30 03:59:16;;;;;;;;;1.25;1.25;;;;;16.54;55.46;100396.09;2104444;28;46576;-62
2023/03/30 04:00:17;;;;;;;;;1.00;0.00;;;;;16.54;55.62;100395.22;2104814;28;46747;-63
2023/03/30 04:01:18;;;;;;;;;0.00;0.00;;;;;16.52;55.58;100403.34;2104310;28;46832;-63
2023/03/30 04:02:19;;;;;;;;;1.50;0.25;;;;;16.51;55.32;100393.56;2087423;28;46752;-63
2023/03/30 04:03:19;;;;;;;;;1.67;1.67;;;;;16.49;56.06;100399.00;2095851;28;46775;-63
2023/03/30 04:04:19;;;;;;;;;0.67;0.67;;;;;16.48;56.23;100402.63;2098892;28;45579;-63
2023/03/30 04:05:20;;;;;;;;;2.00;0.33;;;;;16.47;55.47;100413.41;2104803;28;46699;-64
2023/03/30 04:06:20;;;;;;;;;2.00;2.00;;;;;16.47;55.92;100413.41;2102655;28;46866;-63
2023/03/30 04:07:20;;;;;;;;;1.50;1.50;;;;;16.47;55.66;100410.75;2096607;28;46776;-62
2023/03/30 04:08:21;;;;;;;;;2.33;0.33;;;;;16.47;56.26;100410.75;2101899;28;46739;-62
2023/03/30 04:09:22;;;;;;;;;1.33;0.67;;;;;16.48;56.04;100420.50;2099642;28;46230;-63
2023/03/30 04:10:23;;;;;;;;;3.33;1.33;;;;;16.46;56.22;100420.59;2104130;28;46597;-63
2023/03/30 04:11:23;;;;;;;;;0.75;0.75;;;;;16.48;56.52;100417.81;2103925;28;46328;-61
2023/03/30 04:12:23;;;;;;;;;1.00;1.00;;;;;16.47;56.04;100416.97;2086903;28;45729;-63
2023/03/30 04:13:24;;;;;;;;;1.00;1.00;;;;;16.46;56.37;100417.03;2083383;28;46103;-63
2023/03/30 04:14:24;;;;;;;;;3.00;2.00;;;;;16.44;56.05;100416.25;2109300;27;46350;-64
2023/03/30 04:15:24;;;;;;;;;0.00;0.00;;;;;16.43;56.56;100414.53;2097933;28;46712;-64
2023/03/30 04:16:25;;;;;;;;;0.00;0.00;;;;;16.43;56.11;100422.56;2095997;28;46558;-64
2023/03/30 04:17:25;;;;;;;;;0.00;0.00;;;;;16.43;56.61;100411.84;2092618;28;46241;-63
2023/03/30 04:18:32;;;;;;;;;1.00;1.00;;;;;16.42;56.82;100421.69;2087526;28;46921;-64
2023/03/30 04:19:34;;;;;;;;;1.00;1.00;;;;;16.42;56.53;100407.44;2092931;28;45723;-63
2023/03/30 04:20:35;;;;;;;;;3.00;0.25;;;;;16.42;56.39;100410.13;2094503;28;46970;-64
2023/03/30 04:21:35;;;;;;;;;1.67;1.00;;;;;16.40;56.37;100412.88;2093666;28;46665;-62
2023/03/30 04:22:40;;;;;;;;;0.33;0.33;;;;;16.39;56.28;100405.78;2086147;28;46437;-63
2023/03/30 04:23:44;;;;;;;;;1.00;1.00;;;;;16.37;56.40;100410.31;2085024;28;45165;-65
2023/03/30 04:24:45;;;;;;;;;0.00;0.00;;;;;16.37;56.99;100413.00;2086857;28;45330;-64
2023/03/30 04:25:45;;;;;;;;;1.00;0.00;;;;;16.37;56.62;100406.78;2091946;28;46222;-64
2023/03/30 04:26:47;;;;;;;;;2.00;0.00;;;;;16.37;56.31;100417.50;2093244;28;46624;-62
2023/03/30 04:27:51;;;;;;;;;1.00;1.00;;;;;16.34;56.65;100406.94;2087174;28;45599;-63
2023/03/30 04:28:52;;;;;;;;;0.25;0.25;;;;;16.34;56.52;100410.50;2087219;28;45991;-64
2023/03/30 04:29:56;;;;;;;;;1.75;1.75;;;;;16.34;57.07;100407.81;2087122;28;45885;-63
2023/03/30 04:31:02;;;;;;;;;1.00;1.00;;;;;16.35;56.93;100406.88;2087118;28;46957;-62
2023/03/30 04:32:02;;;;;;;;;2.25;2.25;;;;;16.37;56.89;100409.47;2091162;28;47164;-63
2023/03/30 04:33:03;;;;;;;;;0.33;0.33;;;;;16.38;56.70;100412.06;2095177;28;46810;-63
2023/03/30 04:34:03;;;;;;;;;1.00;1.00;;;;;16.39;56.50;100405.78;2091076;28;46701;-63
2023/03/30 04:35:05;;;;;;;;;1.67;0.00;;;;;16.40;56.15;100418.22;2090802;28;46921;-62
2023/03/30 04:36:05;;;;;;;;;2.50;1.00;;;;;16.40;56.63;100406.66;2086534;28;46133;-63
2023/03/30 04:37:06;;;;;;;;;1.00;1.00;;;;;16.40;57.01;100403.97;2078531;28;46352;-63
2023/03/30 04:38:06;;;;;;;;;0.00;0.00;;;;;16.41;56.71;100417.28;2089575;28;46842;-63
2023/03/30 04:39:07;;;;;;;;;1.00;1.00;;;;;16.40;56.63;100418.22;2095846;28;45376;-63
2023/03/30 04:40:08;;;;;;;;;0.33;0.00;;;;;16.41;56.43;100413.75;2095421;28;46454;-63
2023/03/30 04:41:09;;;;;;;;;1.00;1.00;;;;;16.39;56.71;100421.84;2095296;28;47084;-63
2023/03/30 04:42:13;;;;;;;;;0.00;0.00;;;;;16.38;56.73;100417.41;2086936;28;45836;-63
2023/03/30 04:43:13;;;;;;;;;0.00;0.00;;;;;16.38;56.72;100416.56;2087133;28;46808;-63
2023/03/30 04:44:14;;;;;;;;;2.67;2.00;;;;;16.39;56.63;100421.00;2094745;28;46804;-62
2023/03/30 04:45:17;;;;;;;;;1.00;1.00;;;;;16.40;56.77;100417.38;2095367;28;46697;-62
2023/03/30 04:46:17;;;;;;;;;0.00;0.00;;;;;16.41;56.68;100411.94;2090118;28;45154;-63
2023/03/30 04:47:17;;;;;;;;;1.00;1.00;;;;;16.42;56.60;100412.78;2087969;28;46561;-62
2023/03/30 04:48:19;;;;;;;;;1.33;0.33;;;;;16.42;56.67;100410.13;2089333;28;46618;-62
2023/03/30 04:49:19;;;;;;;;;0.75;0.75;;;;;16.41;56.62;100406.56;2096447;28;46921;-64
2023/03/30 04:50:20;;;;;;;;;1.33;1.33;;;;;16.40;56.68;100407.53;2096235;28;46218;-62
2023/03/30 04:51:21;;;;;;;;;1.00;1.00;;;;;16.40;56.68;100407.53;2094087;28;46677;-65
2023/03/30 04:52:21;;;;;;;;;0.67;0.67;;;;;16.40;56.72;100415.56;2095203;28;46252;-64
2023/03/30 04:53:22;;;;;;;;;0.67;0.67;;;;;16.41;56.38;100414.59;2098362;28;46745;-63
2023/03/30 04:54:22;;;;;;;;;0.33;0.33;;;;;16.38;56.95;100414.75;2098267;28;46716;-62
2023/03/30 04:55:22;;;;;;;;;1.00;1.00;;;;;16.39;56.63;100419.19;2088047;28;46295;-63
2023/03/30 04:56:23;;;;;;;;;2.00;2.00;;;;;16.39;56.67;100415.63;2089206;28;46400;-62
2023/03/30 04:57:23;;;;;;;;;1.00;1.00;;;;;16.39;57.06;100418.31;2096042;28;45456;-62
2023/03/30 04:58:23;;;;;;;;;2.33;1.67;;;;;16.38;56.77;100429.94;2096315;28;46218;-62
2023/03/30 04:59:24;;;;;;;;;1.67;0.67;;;;;16.37;57.26;100426.41;2096100;28;46404;-62
2023/03/30 05:00:26;;;;;;;;;1.33;1.33;;;;;16.38;56.79;100421.91;2093870;28;47257;-63
2023/03/30 05:01:26;;;;;;;;;2.25;1.00;;;;;16.37;56.78;100425.53;2095567;28;46863;-62
2023/03/30 05:02:26;;;;;;;;;4.00;1.00;;;;;16.35;56.83;100425.59;2095232;28;46534;-64